La rose des vents
Donnes mto: Semaine 30/06/08 - 06/07/08 (S 27)
Date Horaire Temp. E. Hum. E. P.atmo. Pluie Vent 1mn Direction Ensoleilleme Ev.Tr. Solaire P. de rose Temp au vent Rafales
30/06/2008 00:00 23,2 C 73 % 1014,9 hPa 0,0 l/m 2,6 km/h (1 Bft) O-NO 0,00 h 0,025 mm 0 W/m 18,1 C 23,2 C 3,5 km/h (1 Bft)
30/06/2008 01:00 23,1 C 71 % 1014,6 hPa 0,0 l/m 1,6 km/h (1 Bft) O-NO 0,00 h 0,051 mm 0 W/m 17,6 C 23,1 C 2,3 km/h (1 Bft)
30/06/2008 02:00 23,0 C 71 % 1014,2 hPa 0,0 l/m 1,4 km/h (1 Bft) O-NO 0,00 h 0,051 mm 0 W/m 17,5 C 23,0 C 2,3 km/h (1 Bft)
30/06/2008 03:00 22,1 C 76 % 1014,2 hPa 0,0 l/m 2,0 km/h (1 Bft) E 0,00 h 0,051 mm 0 W/m 17,6 C 22,1 C 3,3 km/h (1 Bft)
30/06/2008 04:00 21,2 C 80 % 1014,3 hPa 0,0 l/m 2,4 km/h (1 Bft) E-NE 0,00 h 0,025 mm 0 W/m 17,6 C 21,2 C 4,1 km/h (1 Bft)
30/06/2008 05:00 21,2 C 85 % 1014,3 hPa 0,0 l/m 2,6 km/h (1 Bft) N-NE 0,00 h 0,025 mm 5 W/m 18,5 C 21,2 C 4,8 km/h (1 Bft)
30/06/2008 06:00 20,8 C 87 % 1014,5 hPa 0,0 l/m 0,6 km/h (0 Bft) NE 0,03 h 0,025 mm 27 W/m 18,6 C 20,8 C 1,7 km/h (1 Bft)
30/06/2008 07:00 21,7 C 86 % 1014,8 hPa 0,0 l/m 0,0 km/h (0 Bft) N 0,30 h 0,025 mm 115 W/m 19,3 C 21,7 C 0,0 km/h (0 Bft)
30/06/2008 08:00 24,7 C 74 % 1015,1 hPa 0,0 l/m 0,9 km/h (0 Bft) NE 1,00 h 0,076 mm 306 W/m 19,7 C 24,7 C 1,9 km/h (1 Bft)
30/06/2008 09:00 27,1 C 66 % 1015,3 hPa 0,0 l/m 3,6 km/h (1 Bft) E-NE 1,00 h 0,203 mm 473 W/m 20,2 C 27,1 C 6,1 km/h (2 Bft)
30/06/2008 10:00 27,8 C 65 % 1015,3 hPa 0,0 l/m 5,3 km/h (1 Bft) E 1,00 h 0,330 mm 625 W/m 20,5 C 27,8 C 9,4 km/h (2 Bft)
30/06/2008 11:00 28,7 C 64 % 1015,4 hPa 0,0 l/m 7,2 km/h (2 Bft) E 1,00 h 0,432 mm 748 W/m 21,1 C 28,7 C 12,1 km/h (2 Bft)
30/06/2008 12:00 29,2 C 57 % 1015,5 hPa 0,0 l/m 9,0 km/h (2 Bft) E 1,00 h 0,533 mm 844 W/m 19,9 C 29,2 C 13,1 km/h (3 Bft)
30/06/2008 13:00 29,8 C 58 % 1015,3 hPa 0,0 l/m 10,3 km/h (2 Bft) E 1,00 h 0,635 mm 868 W/m 20,8 C 29,8 C 15,2 km/h (3 Bft)
30/06/2008 14:00 29,4 C 57 % 1015,0 hPa 0,0 l/m 9,0 km/h (2 Bft) E 1,00 h 0,660 mm 851 W/m 19,9 C 29,4 C 13,1 km/h (3 Bft)
30/06/2008 15:00 30,4 C 53 % 1014,8 hPa 0,0 l/m 8,4 km/h (2 Bft) E 1,00 h 0,635 mm 779 W/m 19,8 C 30,4 C 12,7 km/h (3 Bft)
30/06/2008 16:00 29,6 C 53 % 1014,5 hPa 0,0 l/m 7,8 km/h (2 Bft) S 1,00 h 0,584 mm 656 W/m 19,0 C 29,6 C 12,9 km/h (3 Bft)
30/06/2008 17:00 28,7 C 53 % 1014,4 hPa 0,0 l/m 9,4 km/h (2 Bft) E 1,00 h 0,508 mm 511 W/m 18,1 C 28,7 C 13,4 km/h (3 Bft)
30/06/2008 18:00 26,9 C 67 % 1014,8 hPa 0,0 l/m 4,1 km/h (1 Bft) E 0,12 h 0,406 mm 148 W/m 20,1 C 26,9 C 6,2 km/h (2 Bft)
30/06/2008 19:00 24,5 C 81 % 1014,9 hPa 0,0 l/m 1,9 km/h (1 Bft) E-SE 0,00 h 0,127 mm 45 W/m 21,0 C 24,5 C 3,2 km/h (1 Bft)
30/06/2008 20:00 24,0 C 82 % 1014,5 hPa 0,0 l/m 1,5 km/h (1 Bft) E-SE 0,00 h 0,051 mm 25 W/m 20,7 C 24,0 C 2,9 km/h (1 Bft)
30/06/2008 21:00 23,3 C 84 % 1014,4 hPa 0,0 l/m 0,8 km/h (0 Bft) SO 0,03 h 0,025 mm 7 W/m 20,4 C 23,3 C 1,6 km/h (1 Bft)
30/06/2008 22:00 22,7 C 86 % 1014,8 hPa 0,0 l/m 1,6 km/h (1 Bft) N 0,00 h 0,000 mm 0 W/m 20,2 C 22,7 C 2,8 km/h (1 Bft)
30/06/2008 23:00 22,3 C 88 % 1015,0 hPa 0,0 l/m 0,1 km/h (0 Bft) NE 0,00 h 0,050 mm 0 W/m 20,2 C 22,3 C 0,3 km/h (0 Bft)
01/07/2008 00:00 21,8 C 89 % 1015,3 hPa 0,0 l/m 0,0 km/h (0 Bft) N 0,00 h 0,000 mm 0 W/m 19,9 C 21,8 C 0,0 km/h (0 Bft)
01/07/2008 01:00 21,5 C 89 % 1015,3 hPa 0,0 l/m 0,2 km/h (0 Bft) NE 0,00 h 0,025 mm 0 W/m 19,7 C 21,5 C 0,5 km/h (0 Bft)
01/07/2008 02:00 21,2 C 91 % 1014,7 hPa 0,0 l/m 0,8 km/h (0 Bft) N-NO 0,00 h 0,025 mm 0 W/m 19,6 C 21,2 C 1,6 km/h (1 Bft)
01/07/2008 03:00 21,0 C 91 % 1014,2 hPa 0,0 l/m 1,4 km/h (1 Bft) NO 0,00 h 0,025 mm 0 W/m 19,5 C 21,0 C 1,9 km/h (1 Bft)
01/07/2008 04:00 20,9 C 91 % 1013,5 hPa 0,0 l/m 5,2 km/h (1 Bft) O 0,00 h 0,025 mm 0 W/m 19,4 C 20,9 C 6,3 km/h (2 Bft)
01/07/2008 05:00 20,6 C 90 % 1013,3 hPa 0,0 l/m 1,4 km/h (1 Bft) O 0,00 h 0,025 mm 5 W/m 18,9 C 20,6 C 2,0 km/h (1 Bft)
01/07/2008 06:00 20,7 C 90 % 1013,6 hPa 0,0 l/m 1,9 km/h (1 Bft) O 0,05 h 0,000 mm 29 W/m 18,9 C 20,7 C 2,8 km/h (1 Bft)
01/07/2008 07:00 21,7 C 87 % 1014,4 hPa 0,0 l/m 4,5 km/h (1 Bft) NE 0,17 h 0,025 mm 108 W/m 19,4 C 21,7 C 6,9 km/h (2 Bft)
01/07/2008 08:00 24,2 C 80 % 1015,0 hPa 0,0 l/m 4,8 km/h (1 Bft) E-NE 0,62 h 0,076 mm 255 W/m 20,6 C 24,2 C 7,3 km/h (2 Bft)
01/07/2008 09:00 24,6 C 79 % 1015,5 hPa 0,0 l/m 2,8 km/h (1 Bft) SE 0,17 h 0,178 mm 210 W/m 20,6 C 24,6 C 5,2 km/h (1 Bft)
01/07/2008 10:00 26,4 C 69 % 1015,3 hPa 0,0 l/m 3,1 km/h (1 Bft) E-NE 0,67 h 0,152 mm 496 W/m 20,2 C 26,4 C 5,2 km/h (1 Bft)
01/07/2008 11:00 28,8 C 56 % 1015,1 hPa 0,0 l/m 6,9 km/h (2 Bft) E 0,87 h 0,356 mm 715 W/m 19,1 C 28,8 C 10,1 km/h (2 Bft)
01/07/2008 12:00 30,1 C 44 % 1014,9 hPa 0,0 l/m 7,1 km/h (2 Bft) NE 1,00 h 0,533 mm 884 W/m 16,5 C 30,1 C 11,0 km/h (2 Bft)
01/07/2008 13:00 30,8 C 45 % 1014,5 hPa 0,0 l/m 8,2 km/h (2 Bft) E 1,00 h 0,660 mm 881 W/m 17,4 C 30,8 C 12,6 km/h (3 Bft)
01/07/2008 14:00 31,1 C 44 % 1014,1 hPa 0,0 l/m 7,5 km/h (2 Bft) E 1,00 h 0,686 mm 864 W/m 17,2 C 31,1 C 11,9 km/h (2 Bft)
01/07/2008 15:00 30,3 C 46 % 1013,8 hPa 0,0 l/m 8,3 km/h (2 Bft) E 1,00 h 0,660 mm 790 W/m 17,3 C 30,3 C 12,5 km/h (3 Bft)
01/07/2008 16:00 30,2 C 47 % 1013,6 hPa 0,0 l/m 8,7 km/h (2 Bft) E 1,00 h 0,610 mm 682 W/m 17,6 C 30,2 C 13,3 km/h (3 Bft)
01/07/2008 17:00 29,7 C 51 % 1013,0 hPa 0,0 l/m 5,6 km/h (1 Bft) E 1,00 h 0,533 mm 537 W/m 18,4 C 29,7 C 9,0 km/h (2 Bft)
01/07/2008 18:00 28,9 C 56 % 1012,8 hPa 0,0 l/m 4,5 km/h (1 Bft) E 1,00 h 0,406 mm 366 W/m 19,1 C 28,9 C 7,4 km/h (2 Bft)
01/07/2008 19:00 28,0 C 55 % 1012,6 hPa 0,0 l/m 3,5 km/h (1 Bft) S-SE 0,95 h 0,279 mm 193 W/m 18,1 C 28,0 C 5,7 km/h (1 Bft)
01/07/2008 20:00 26,1 C 68 % 1012,4 hPa 0,0 l/m 2,2 km/h (1 Bft) S-SE 0,00 h 0,152 mm 32 W/m 19,8 C 26,1 C 4,1 km/h (1 Bft)
01/07/2008 21:00 24,2 C 76 % 1012,4 hPa 0,0 l/m 0,3 km/h (0 Bft) S-SE 0,00 h 0,051 mm 7 W/m 19,7 C 24,2 C 0,9 km/h (0 Bft)
01/07/2008 22:00 22,8 C 79 % 1012,8 hPa 0,0 l/m 1,0 km/h (0 Bft) SO 0,00 h 0,000 mm 0 W/m 19,1 C 22,8 C 2,2 km/h (1 Bft)
01/07/2008 23:00 22,2 C 81 % 1013,1 hPa 0,0 l/m 0,6 km/h (0 Bft) SO 0,00 h 0,025 mm 0 W/m 18,8 C 22,2 C 1,3 km/h (1 Bft)
02/07/2008 00:00 21,7 C 81 % 1013,3 hPa 0,0 l/m 1,4 km/h (1 Bft) SO 0,00 h 0,025 mm 0 W/m 18,3 C 21,7 C 2,3 km/h (1 Bft)
02/07/2008 01:00 21,8 C 77 % 1013,3 hPa 0,0 l/m 5,6 km/h (1 Bft) SO 0,00 h 0,025 mm 0 W/m 17,6 C 21,8 C 7,4 km/h (2 Bft)
02/07/2008 02:00 21,8 C 72 % 1012,9 hPa 0,0 l/m 6,7 km/h (2 Bft) O 0,00 h 0,051 mm 0 W/m 16,4 C 21,8 C 8,9 km/h (2 Bft)
02/07/2008 03:00 21,3 C 70 % 1012,2 hPa 0,0 l/m 6,3 km/h (2 Bft) NO 0,00 h 0,051 mm 0 W/m 15,6 C 21,3 C 9,1 km/h (2 Bft)
02/07/2008 04:00 21,5 C 66 % 1011,7 hPa 0,0 l/m 4,0 km/h (1 Bft) NO 0,00 h 0,051 mm 0 W/m 14,9 C 21,5 C 6,0 km/h (2 Bft)
02/07/2008 05:00 21,4 C 65 % 1011,4 hPa 0,0 l/m 4,3 km/h (1 Bft) O-NO 0,00 h 0,051 mm 5 W/m 14,4 C 21,4 C 7,0 km/h (2 Bft)
02/07/2008 06:00 21,3 C 63 % 1011,6 hPa 0,0 l/m 4,1 km/h (1 Bft) O 0,03 h 0,025 mm 28 W/m 14,0 C 21,3 C 7,1 km/h (2 Bft)
02/07/2008 07:00 22,2 C 62 % 1011,8 hPa 0,0 l/m 1,6 km/h (1 Bft) N-NO 0,30 h 0,051 mm 113 W/m 14,6 C 22,2 C 3,1 km/h (1 Bft)
02/07/2008 08:00 25,1 C 56 % 1012,0 hPa 0,0 l/m 0,9 km/h (0 Bft) E-SE 1,00 h 0,076 mm 319 W/m 15,7 C 25,1 C 2,5 km/h (1 Bft)
02/07/2008 09:00 27,0 C 51 % 1012,3 hPa 0,0 l/m 3,8 km/h (1 Bft) S 1,00 h 0,229 mm 488 W/m 16,1 C 27,0 C 6,1 km/h (2 Bft)
02/07/2008 10:00 28,5 C 52 % 1012,4 hPa 0,0 l/m 6,7 km/h (2 Bft) E 1,00 h 0,356 mm 641 W/m 17,7 C 28,5 C 10,7 km/h (2 Bft)
02/07/2008 11:00 29,1 C 54 % 1012,4 hPa 0,0 l/m 7,4 km/h (2 Bft) E 1,00 h 0,483 mm 759 W/m 18,7 C 29,1 C 12,3 km/h (3 Bft)
02/07/2008 12:00 29,2 C 57 % 1012,5 hPa 0,0 l/m 7,8 km/h (2 Bft) E 1,00 h 0,559 mm 836 W/m 19,7 C 29,2 C 11,9 km/h (2 Bft)
02/07/2008 13:00 28,8 C 61 % 1012,3 hPa 0,0 l/m 9,4 km/h (2 Bft) E 1,00 h 0,610 mm 867 W/m 20,4 C 28,8 C 14,3 km/h (3 Bft)
02/07/2008 14:00 29,7 C 54 % 1012,2 hPa 0,0 l/m 7,9 km/h (2 Bft) E 1,00 h 0,635 mm 867 W/m 19,3 C 29,7 C 12,3 km/h (3 Bft)
02/07/2008 15:00 30,1 C 51 % 1011,7 hPa 0,0 l/m 8,8 km/h (2 Bft) E 1,00 h 0,635 mm 784 W/m 18,9 C 30,1 C 13,5 km/h (3 Bft)
02/07/2008 16:00 30,3 C 47 % 1011,2 hPa 0,0 l/m 7,4 km/h (2 Bft) E 1,00 h 0,610 mm 683 W/m 17,9 C 30,3 C 11,1 km/h (2 Bft)
02/07/2008 17:00 29,5 C 55 % 1011,0 hPa 0,0 l/m 7,1 km/h (2 Bft) E 1,00 h 0,533 mm 544 W/m 19,4 C 29,5 C 10,9 km/h (2 Bft)
02/07/2008 18:00 27,7 C 63 % 1010,5 hPa 0,0 l/m 3,5 km/h (1 Bft) E 0,40 h 0,432 mm 215 W/m 19,8 C 27,7 C 5,8 km/h (2 Bft)
02/07/2008 19:00 25,5 C 75 % 1010,6 hPa 0,0 l/m 4,7 km/h (1 Bft) S 0,00 h 0,178 mm 70 W/m 20,7 C 25,5 C 7,4 km/h (2 Bft)
02/07/2008 20:00 24,6 C 80 % 1010,6 hPa 0,0 l/m 2,7 km/h (1 Bft) S 0,40 h 0,076 mm 43 W/m 21,0 C 24,6 C 4,8 km/h (1 Bft)
02/07/2008 21:00 23,7 C 83 % 1010,7 hPa 0,0 l/m 0,9 km/h (0 Bft) S 0,10 h 0,051 mm 10 W/m 20,6 C 23,7 C 1,7 km/h (1 Bft)
02/07/2008 22:00 22,9 C 86 % 1011,3 hPa 0,0 l/m 1,6 km/h (1 Bft) S 0,00 h 0,000 mm 0 W/m 20,4 C 22,9 C 2,5 km/h (1 Bft)
02/07/2008 23:00 22,5 C 87 % 1011,1 hPa 0,0 l/m 2,7 km/h (1 Bft) S 0,00 h 0,025 mm 0 W/m 20,3 C 22,5 C 3,9 km/h (1 Bft)
03/07/2008 00:00 21,8 C 89 % 1010,8 hPa 0,0 l/m 3,1 km/h (1 Bft) O-NO 0,00 h 0,025 mm 0 W/m 19,9 C 21,8 C 4,4 km/h (1 Bft)
03/07/2008 01:00 21,3 C 90 % 1010,9 hPa 0,0 l/m 3,8 km/h (1 Bft) O-NO 0,00 h 0,025 mm 0 W/m 19,5 C 21,3 C 5,3 km/h (1 Bft)
03/07/2008 02:00 20,4 C 90 % 1010,6 hPa 0,0 l/m 3,4 km/h (1 Bft) O-NO 0,00 h 0,025 mm 0 W/m 18,8 C 20,4 C 5,0 km/h (1 Bft)
03/07/2008 03:00 20,1 C 90 % 1010,2 hPa 0,0 l/m 2,3 km/h (1 Bft) O-NO 0,00 h 0,025 mm 0 W/m 18,4 C 20,1 C 3,3 km/h (1 Bft)
03/07/2008 04:00 19,6 C 89 % 1009,8 hPa 0,0 l/m 1,0 km/h (0 Bft) O-NO 0,00 h 0,025 mm 0 W/m 17,8 C 19,6 C 1,6 km/h (1 Bft)
03/07/2008 05:00 19,5 C 87 % 1010,0 hPa 0,0 l/m 0,8 km/h (0 Bft) O-NO 0,00 h 0,025 mm 8 W/m 17,3 C 19,5 C 1,4 km/h (1 Bft)
03/07/2008 06:00 19,7 C 84 % 1010,2 hPa 0,0 l/m 2,0 km/h (1 Bft) O-NO 0,03 h 0,000 mm 36 W/m 16,9 C 19,7 C 3,8 km/h (1 Bft)
03/07/2008 07:00 20,7 C 79 % 1010,5 hPa 0,0 l/m 1,8 km/h (1 Bft) NO 0,22 h 0,025 mm 104 W/m 16,9 C 20,7 C 3,9 km/h (1 Bft)
03/07/2008 08:00 24,0 C 72 % 1010,7 hPa 0,0 l/m 1,0 km/h (0 Bft) NO 0,93 h 0,076 mm 303 W/m 18,6 C 24,0 C 2,6 km/h (1 Bft)
03/07/2008 09:00 24,8 C 70 % 1011,0 hPa 0,0 l/m 2,0 km/h (1 Bft) E 0,58 h 0,203 mm 351 W/m 19,0 C 24,8 C 4,1 km/h (1 Bft)
03/07/2008 10:00 25,7 C 64 % 1011,0 hPa 0,0 l/m 4,5 km/h (1 Bft) NE 0,35 h 0,229 mm 374 W/m 18,3 C 25,7 C 7,2 km/h (2 Bft)
03/07/2008 11:00 25,6 C 72 % 1010,5 hPa 0,0 l/m 6,7 km/h (2 Bft) S-SE 0,02 h 0,279 mm 325 W/m 20,0 C 25,6 C 10,3 km/h (2 Bft)
03/07/2008 12:00 25,6 C 74 % 1011,1 hPa 0,0 l/m 6,1 km/h (2 Bft) S 0,25 h 0,254 mm 441 W/m 20,6 C 25,6 C 9,7 km/h (2 Bft)
03/07/2008 13:00 26,1 C 72 % 1011,3 hPa 0,0 l/m 4,9 km/h (1 Bft) E 0,00 h 0,305 mm 331 W/m 20,6 C 26,1 C 8,3 km/h (2 Bft)
03/07/2008 14:00 25,4 C 74 % 1011,1 hPa 0,0 l/m 5,2 km/h (1 Bft) E 0,00 h 0,229 mm 203 W/m 20,4 C 25,4 C 7,7 km/h (2 Bft)
03/07/2008 15:00 25,0 C 77 % 1010,7 hPa 0,0 l/m 4,9 km/h (1 Bft) E 0,17 h 0,152 mm 280 W/m 20,7 C 25,0 C 7,6 km/h (2 Bft)
03/07/2008 16:00 26,3 C 72 % 1010,4 hPa 0,0 l/m 6,0 km/h (2 Bft) S 0,43 h 0,203 mm 436 W/m 20,7 C 26,3 C 9,3 km/h (2 Bft)
03/07/2008 17:00 26,3 C 71 % 1010,3 hPa 0,0 l/m 3,9 km/h (1 Bft) S-SE 0,32 h 0,305 mm 331 W/m 20,6 C 26,3 C 6,6 km/h (2 Bft)
03/07/2008 18:00 25,9 C 69 % 1009,6 hPa 0,0 l/m 4,6 km/h (1 Bft) S-SE 0,20 h 0,229 mm 200 W/m 19,8 C 25,9 C 7,0 km/h (2 Bft)
03/07/2008 19:00 24,6 C 75 % 1009,4 hPa 0,0 l/m 5,2 km/h (1 Bft) S 0,00 h 0,152 mm 75 W/m 19,8 C 24,6 C 7,7 km/h (2 Bft)
03/07/2008 20:00 23,9 C 80 % 1009,2 hPa 0,0 l/m 0,8 km/h (0 Bft) S-SO 0,00 h 0,076 mm 35 W/m 20,2 C 23,9 C 1,6 km/h (1 Bft)
03/07/2008 21:00 22,6 C 84 % 1009,4 hPa 0,0 l/m 2,5 km/h (1 Bft) S-SO 0,00 h 0,025 mm 6 W/m 19,7 C 22,6 C 3,8 km/h (1 Bft)
03/07/2008 22:00 22,1 C 86 % 1009,7 hPa 0,0 l/m 0,7 km/h (0 Bft) S-SO 0,00 h 0,025 mm 0 W/m 19,7 C 22,1 C 1,5 km/h (1 Bft)
03/07/2008 23:00 21,2 C 88 % 1009,7 hPa 0,0 l/m 1,0 km/h (0 Bft) O-SO 0,00 h 0,025 mm 0 W/m 19,1 C 21,2 C 2,1 km/h (1 Bft)
04/07/2008 00:00 20,7 C 89 % 1009,5 hPa 0,0 l/m 1,6 km/h (1 Bft) O-NO 0,00 h 0,025 mm 0 W/m 18,8 C 20,7 C 3,2 km/h (1 Bft)
04/07/2008 01:00 20,3 C 90 % 1009,3 hPa 0,0 l/m 1,8 km/h (1 Bft) O-NO 0,00 h 0,025 mm 0 W/m 18,6 C 20,3 C 3,5 km/h (1 Bft)
04/07/2008 02:00 19,7 C 90 % 1008,9 hPa 0,0 l/m 2,6 km/h (1 Bft) O-NO 0,00 h 0,025 mm 0 W/m 18,0 C 19,7 C 4,6 km/h (1 Bft)
04/07/2008 03:00 19,2 C 89 % 1008,7 hPa 0,0 l/m 3,1 km/h (1 Bft) O 0,00 h 0,025 mm 0 W/m 17,5 C 19,2 C 4,9 km/h (1 Bft)
04/07/2008 04:00 18,7 C 86 % 1008,3 hPa 0,0 l/m 4,3 km/h (1 Bft) NO 0,00 h 0,025 mm 0 W/m 16,4 C 18,7 C 5,8 km/h (2 Bft)
04/07/2008 05:00 18,9 C 81 % 1008,0 hPa 0,0 l/m 5,9 km/h (2 Bft) O-NO 0,00 h 0,025 mm 5 W/m 15,5 C 18,9 C 8,7 km/h (2 Bft)
04/07/2008 06:00 18,9 C 81 % 1008,3 hPa 0,0 l/m 1,2 km/h (1 Bft) O-NO 0,22 h 0,025 mm 29 W/m 15,6 C 18,9 C 2,2 km/h (1 Bft)
04/07/2008 07:00 20,2 C 79 % 1008,3 hPa 0,0 l/m 0,2 km/h (0 Bft) O-NO 0,32 h 0,025 mm 108 W/m 16,5 C 20,2 C 0,3 km/h (0 Bft)
04/07/2008 08:00 22,7 C 68 % 1008,9 hPa 0,0 l/m 2,7 km/h (1 Bft) E 1,00 h 0,076 mm 338 W/m 16,5 C 22,7 C 4,8 km/h (1 Bft)
04/07/2008 09:00 24,9 C 65 % 1009,2 hPa 0,0 l/m 4,6 km/h (1 Bft) NE 1,00 h 0,229 mm 505 W/m 17,8 C 24,9 C 7,6 km/h (2 Bft)
04/07/2008 10:00 26,4 C 63 % 1009,3 hPa 0,0 l/m 6,3 km/h (2 Bft) E-NE 1,00 h 0,356 mm 658 W/m 18,8 C 26,4 C 10,0 km/h (2 Bft)
04/07/2008 11:00 27,7 C 61 % 1009,4 hPa 0,0 l/m 7,3 km/h (2 Bft) E 1,00 h 0,457 mm 784 W/m 19,4 C 27,7 C 11,7 km/h (2 Bft)
04/07/2008 12:00 28,0 C 58 % 1009,6 hPa 0,0 l/m 7,1 km/h (2 Bft) E 1,00 h 0,559 mm 865 W/m 19,0 C 28,0 C 11,3 km/h (2 Bft)
04/07/2008 13:00 28,9 C 57 % 1009,5 hPa 0,0 l/m 6,9 km/h (2 Bft) E-NE 1,00 h 0,610 mm 909 W/m 19,5 C 28,9 C 11,4 km/h (2 Bft)
04/07/2008 14:00 29,0 C 57 % 1009,1 hPa 0,0 l/m 9,7 km/h (2 Bft) E 1,00 h 0,635 mm 871 W/m 19,6 C 29,0 C 14,8 km/h (3 Bft)
04/07/2008 15:00 28,6 C 62 % 1009,2 hPa 0,0 l/m 9,4 km/h (2 Bft) E 1,00 h 0,635 mm 796 W/m 20,5 C 28,6 C 14,2 km/h (3 Bft)
04/07/2008 16:00 28,5 C 63 % 1009,2 hPa 0,0 l/m 9,6 km/h (2 Bft) E 1,00 h 0,584 mm 685 W/m 20,8 C 28,5 C 14,3 km/h (3 Bft)
04/07/2008 17:00 27,8 C 61 % 1009,2 hPa 0,0 l/m 6,6 km/h (2 Bft) E 1,00 h 0,508 mm 525 W/m 19,7 C 27,8 C 10,7 km/h (2 Bft)
04/07/2008 18:00 27,3 C 59 % 1009,0 hPa 0,0 l/m 5,1 km/h (1 Bft) E 1,00 h 0,381 mm 372 W/m 18,5 C 27,3 C 7,6 km/h (2 Bft)
04/07/2008 19:00 26,7 C 59 % 1008,7 hPa 0,0 l/m 2,6 km/h (1 Bft) E 1,00 h 0,279 mm 209 W/m 18,0 C 26,7 C 4,6 km/h (1 Bft)
04/07/2008 20:00 25,3 C 62 % 1008,8 hPa 0,0 l/m 0,3 km/h (0 Bft) E 0,05 h 0,152 mm 34 W/m 17,5 C 25,3 C 1,0 km/h (0 Bft)
04/07/2008 21:00 22,9 C 68 % 1009,0 hPa 0,0 l/m 0,2 km/h (0 Bft) E 0,02 h 0,025 mm 7 W/m 16,7 C 22,9 C 0,4 km/h (0 Bft)
04/07/2008 22:00 22,0 C 74 % 1009,5 hPa 0,0 l/m 0,9 km/h (0 Bft) E 0,00 h 0,000 mm 0 W/m 17,1 C 22,0 C 1,5 km/h (1 Bft)
04/07/2008 23:00 21,7 C 76 % 1009,7 hPa 0,0 l/m 3,5 km/h (1 Bft) O 0,00 h 0,025 mm 0 W/m 17,2 C 21,7 C 4,8 km/h (1 Bft)
05/07/2008 00:00 20,9 C 78 % 1009,7 hPa 0,0 l/m 1,9 km/h (1 Bft) NO 0,00 h 0,051 mm 0 W/m 16,8 C 20,9 C 3,4 km/h (1 Bft)
05/07/2008 01:00 20,4 C 77 % 1009,7 hPa 0,0 l/m 1,3 km/h (1 Bft) NO 0,00 h 0,025 mm 0 W/m 16,3 C 20,4 C 2,0 km/h (1 Bft)
05/07/2008 02:00 20,1 C 77 % 1009,7 hPa 0,0 l/m 2,3 km/h (1 Bft) NO 0,00 h 0,025 mm 0 W/m 16,0 C 20,1 C 3,9 km/h (1 Bft)
05/07/2008 03:00 19,8 C 78 % 1009,8 hPa 0,0 l/m 4,0 km/h (1 Bft) NO 0,00 h 0,025 mm 0 W/m 15,9 C 19,8 C 5,8 km/h (2 Bft)
05/07/2008 04:00 19,5 C 80 % 1009,7 hPa 0,0 l/m 3,4 km/h (1 Bft) O-NO 0,00 h 0,025 mm 0 W/m 15,9 C 19,5 C 5,2 km/h (1 Bft)
05/07/2008 05:00 19,6 C 80 % 1009,8 hPa 0,0 l/m 4,6 km/h (1 Bft) O-NO 0,00 h 0,025 mm 5 W/m 16,0 C 19,6 C 6,4 km/h (2 Bft)
05/07/2008 06:00 19,4 C 79 % 1009,8 hPa 0,0 l/m 4,1 km/h (1 Bft) O-NO 0,02 h 0,025 mm 18 W/m 15,7 C 19,4 C 6,7 km/h (2 Bft)
05/07/2008 07:00 20,5 C 75 % 1010,3 hPa 0,0 l/m 3,8 km/h (1 Bft) O-NO 0,30 h 0,025 mm 98 W/m 16,0 C 20,5 C 6,5 km/h (2 Bft)
05/07/2008 08:00 23,6 C 72 % 1010,5 hPa 0,0 l/m 1,6 km/h (1 Bft) O-NO 1,00 h 0,076 mm 339 W/m 18,3 C 23,6 C 3,2 km/h (1 Bft)
05/07/2008 09:00 25,4 C 67 % 1010,8 hPa 0,0 l/m 3,9 km/h (1 Bft) E 0,70 h 0,229 mm 414 W/m 18,7 C 25,4 C 6,6 km/h (2 Bft)
05/07/2008 10:00 26,5 C 65 % 1011,1 hPa 0,0 l/m 5,3 km/h (1 Bft) E 0,70 h 0,279 mm 606 W/m 19,4 C 26,5 C 8,8 km/h (2 Bft)
05/07/2008 11:00 27,0 C 64 % 1011,2 hPa 0,0 l/m 8,6 km/h (2 Bft) E 0,55 h 0,457 mm 611 W/m 19,6 C 27,0 C 13,2 km/h (3 Bft)
05/07/2008 12:00 27,0 C 64 % 1011,3 hPa 0,0 l/m 8,3 km/h (2 Bft) E 0,37 h 0,457 mm 620 W/m 19,7 C 27,0 C 13,5 km/h (3 Bft)
05/07/2008 13:00 26,8 C 64 % 1011,3 hPa 0,0 l/m 10,6 km/h (2 Bft) E 0,33 h 0,457 mm 600 W/m 19,4 C 26,8 C 15,1 km/h (3 Bft)
05/07/2008 14:00 27,2 C 63 % 1011,3 hPa 0,0 l/m 10,4 km/h (2 Bft) E 0,27 h 0,483 mm 526 W/m 19,5 C 27,2 C 14,7 km/h (3 Bft)
05/07/2008 15:00 28,1 C 59 % 1011,2 hPa 0,0 l/m 8,8 km/h (2 Bft) E 0,93 h 0,457 mm 787 W/m 19,4 C 28,1 C 13,7 km/h (3 Bft)
05/07/2008 16:00 28,2 C 63 % 1011,1 hPa 0,0 l/m 9,0 km/h (2 Bft) E 1,00 h 0,533 mm 710 W/m 20,4 C 28,2 C 14,1 km/h (3 Bft)
05/07/2008 17:00 27,5 C 66 % 1010,9 hPa 0,0 l/m 7,0 km/h (2 Bft) E 0,87 h 0,533 mm 504 W/m 20,6 C 27,5 C 11,6 km/h (2 Bft)
05/07/2008 18:00 26,5 C 69 % 1010,5 hPa 0,0 l/m 4,6 km/h (1 Bft) E 0,73 h 0,356 mm 307 W/m 20,5 C 26,5 C 8,0 km/h (2 Bft)
05/07/2008 19:00 25,3 C 74 % 1010,4 hPa 0,0 l/m 2,9 km/h (1 Bft) E-SE 0,20 h 0,229 mm 105 W/m 20,3 C 25,3 C 5,8 km/h (2 Bft)
05/07/2008 20:00 23,5 C 82 % 1010,7 hPa 0,0 l/m 2,2 km/h (1 Bft) E-SE 0,00 h 0,076 mm 25 W/m 20,1 C 23,5 C 4,1 km/h (1 Bft)
05/07/2008 21:00 22,4 C 85 % 1010,7 hPa 0,0 l/m 1,0 km/h (0 Bft) E-SE 0,00 h 0,025 mm 6 W/m 19,8 C 22,4 C 2,2 km/h (1 Bft)
05/07/2008 22:00 21,7 C 87 % 1011,1 hPa 0,0 l/m 0,0 km/h (0 Bft) N 0,00 h 0,000 mm 0 W/m 19,4 C 21,7 C 0,0 km/h (0 Bft)
05/07/2008 23:00 21,4 C 88 % 1011,3 hPa 0,0 l/m 0,5 km/h (0 Bft) E-SE 0,00 h 0,025 mm 0 W/m 19,3 C 21,4 C 1,1 km/h (1 Bft)
06/07/2008 00:00 21,0 C 90 % 1011,3 hPa 0,0 l/m 0,8 km/h (0 Bft) E-SE 0,00 h 0,025 mm 0 W/m 19,2 C 21,0 C 1,6 km/h (1 Bft)
06/07/2008 01:00 20,7 C 91 % 1011,3 hPa 0,0 l/m 2,1 km/h (1 Bft) E-SE 0,00 h 0,025 mm 0 W/m 19,2 C 20,7 C 3,5 km/h (1 Bft)
06/07/2008 02:00 20,2 C 91 % 1010,8 hPa 0,0 l/m 1,0 km/h (0 Bft) E-SE 0,00 h 0,025 mm 0 W/m 18,8 C 20,2 C 2,1 km/h (1 Bft)
06/07/2008 03:00 20,2 C 92 % 1010,6 hPa 0,0 l/m 1,9 km/h (1 Bft) E-SE 0,00 h 0,025 mm 0 W/m 18,9 C 20,2 C 3,3 km/h (1 Bft)
06/07/2008 04:00 20,4 C 93 % 1010,7 hPa 0,0 l/m 3,4 km/h (1 Bft) NO 0,00 h 0,025 mm 0 W/m 19,2 C 20,4 C 5,0 km/h (1 Bft)
06/07/2008 05:00 20,5 C 93 % 1010,5 hPa 0,0 l/m 1,6 km/h (1 Bft) NO 0,00 h 0,025 mm 0 W/m 19,4 C 20,5 C 3,0 km/h (1 Bft)
06/07/2008 06:00 20,7 C 93 % 1010,2 hPa 0,0 l/m 0,3 km/h (0 Bft) NO 0,00 h 0,000 mm 22 W/m 19,5 C 20,7 C 0,9 km/h (0 Bft)
06/07/2008 07:00 21,1 C 92 % 1010,7 hPa 0,0 l/m 2,0 km/h (1 Bft) N-NO 0,00 h 0,025 mm 64 W/m 19,8 C 21,1 C 3,8 km/h (1 Bft)
06/07/2008 08:00 22,4 C 84 % 1010,8 hPa 0,0 l/m 1,4 km/h (1 Bft) O-NO 0,00 h 0,051 mm 133 W/m 19,5 C 22,4 C 2,7 km/h (1 Bft)
06/07/2008 09:00 24,5 C 77 % 1010,8 hPa 0,0 l/m 3,3 km/h (1 Bft) NE 0,33 h 0,076 mm 343 W/m 20,1 C 24,5 C 5,6 km/h (1 Bft)
06/07/2008 10:00 25,7 C 74 % 1010,3 hPa 0,0 l/m 5,3 km/h (1 Bft) E 0,52 h 0,229 mm 436 W/m 20,6 C 25,7 C 8,3 km/h (2 Bft)
06/07/2008 11:00 25,9 C 72 % 1010,7 hPa 0,0 l/m 5,8 km/h (2 Bft) E 0,13 h 0,305 mm 310 W/m 20,5 C 25,9 C 9,6 km/h (2 Bft)
06/07/2008 12:00 25,9 C 73 % 1010,5 hPa 0,0 l/m 6,6 km/h (2 Bft) E 0,12 h 0,229 mm 394 W/m 20,6 C 25,9 C 10,6 km/h (2 Bft)
06/07/2008 13:00 26,5 C 71 % 1010,3 hPa 0,0 l/m 7,0 km/h (2 Bft) E 0,20 h 0,305 mm 401 W/m 20,7 C 26,5 C 11,1 km/h (2 Bft)
06/07/2008 14:00 26,5 C 71 % 1009,7 hPa 0,0 l/m 10,9 km/h (2 Bft) S 0,45 h 0,305 mm 585 W/m 20,8 C 26,5 C 15,7 km/h (3 Bft)
06/07/2008 15:00 27,5 C 67 % 1009,2 hPa 0,0 l/m 10,2 km/h (2 Bft) S 0,90 h 0,432 mm 791 W/m 20,7 C 27,5 C 15,7 km/h (3 Bft)
06/07/2008 16:00 26,4 C 70 % 1009,1 hPa 0,0 l/m 10,3 km/h (2 Bft) S-SE 0,53 h 0,559 mm 445 W/m 20,6 C 26,4 C 15,3 km/h (3 Bft)
06/07/2008 17:00 25,7 C 73 % 1008,6 hPa 0,0 l/m 5,0 km/h (1 Bft) S-SE 0,32 h 0,330 mm 316 W/m 20,5 C 25,7 C 8,6 km/h (2 Bft)
06/07/2008 18:00 25,5 C 72 % 1008,1 hPa 0,0 l/m 4,8 km/h (1 Bft) S-SE 0,30 h 0,229 mm 222 W/m 20,1 C 25,5 C 7,4 km/h (2 Bft)
06/07/2008 19:00 25,6 C 73 % 1007,7 hPa 0,0 l/m 3,9 km/h (1 Bft) E 0,80 h 0,178 mm 181 W/m 20,3 C 25,6 C 6,8 km/h (2 Bft)
06/07/2008 20:00 24,1 C 80 % 1007,6 hPa 0,0 l/m 2,6 km/h (1 Bft) E 0,00 h 0,127 mm 41 W/m 20,3 C 24,1 C 4,3 km/h (1 Bft)
06/07/2008 21:00 22,5 C 84 % 1007,7 hPa 0,0 l/m 2,3 km/h (1 Bft) S 0,05 h 0,051 mm 8 W/m 19,6 C 22,5 C 3,9 km/h (1 Bft)
06/07/2008 22:00 21,5 C 86 % 1008,1 hPa 0,0 l/m 0,1 km/h (0 Bft) S 0,00 h 0,025 mm 0 W/m 19,1 C 21,5 C 0,2 km/h (0 Bft)
06/07/2008 23:00 20,9 C 88 % 1008,1 hPa 0,0 l/m 1,1 km/h (1 Bft) NO 0,00 h 0,025 mm 0 W/m 18,8 C 20,9 C 2,6 km/h (1 Bft)
Min-Date _ 04/07/08 01/07/08 06/07/08 - 30/06/08 - - - - 02/07/08 04/07/08 30/06/08
_ Min-Heure 03:54 12:42 20:15 - 00:00 - - - - 06:21 03:54 00:00
Minimum _ 18,5 C 41 % 1007,5 hPa - 0,0 km/h (0 Bft) - - - - 13,8 C 18,5 C 0,0 km/h (0 Bft)
Max-Date _ 01/07/08 06/07/08 01/07/08 30/06/08 04/07/08 - 30/06/08 01/07/08 05/07/08 05/07/08 01/07/08 06/07/08
_ Max-Heure 14:21 07:39 09:30 00:00 14:40 - 06:05 14:00 12:39 17:18 14:21 14:44
Maximum _ 32,1 C 97 % 1015,6 hPa 0,0 l/m 17,7 km/h
E (3 Bft)
- 0,02 h 0,686 mm 1194 W/m 22,0 C 32,1 C 24,1 km/h
S (4 Bft)
Moyenne _ 24,3 C 73 % 1011,5 hPa #0,0 l/m 4,1 km/h (1 Bft) E #60:55 h #34,040 mm 372 W/m 18,9 C 24,3 C 6,5 km/h (2 Bft)
Roquefort les pins